Paxton, Texas
Current Conditions -  °F | °C
As of 8:56 AM on Tuesday 21 Oct 2014 (Local Time) from KSHV Reporting Station
Few Clouds Few Clouds  
Wind Chill: 64°   Ceiling: Unl
Heat Index: 64°   Visibility: 10mi
Dew Point: 59°   Wind: 0mph
Humidity: 84%   Direction: NA
Pressure: 30.1"   Gusts: NA
Location:  31.9194°N, 94.0667°W
Report Text: KSHV 211356Z 00000KT 10SM FEW045 FEW280 18/15 A3010 RMK AO2 SLP191 T01780150
Loading
Personal Weather Stations






























Interactive Weather Map
Tropical Storm Tracking
New forecast layout! Learn more

10-Day Weather Forecast

Advertisements
Track Severe Weather on mobile